sensor_id;sensor_type;location;lat;lon;timestamp;pressure;altitude;pressure_sealevel;temperature;humidity
64158;BME280;50449;51.528;5.076;2023-02-02T00:01:08;102088.81;;;8.62;69.68
64158;BME280;50449;51.528;5.076;2023-02-02T00:03:33;102103.94;;;8.63;69.72
64158;BME280;50449;51.528;5.076;2023-02-02T00:05:59;102105.81;;;8.63;69.78
64158;BME280;50449;51.528;5.076;2023-02-02T00:08:25;102096.91;;;8.62;69.89
64158;BME280;50449;51.528;5.076;2023-02-02T00:10:50;102095.03;;;8.63;69.75
64158;BME280;50449;51.528;5.076;2023-02-02T00:13:16;102092.34;;;8.63;69.78
64158;BME280;50449;51.528;5.076;2023-02-02T00:15:41;102092.34;;;8.63;69.69
64158;BME280;50449;51.528;5.076;2023-02-02T00:18:07;102102.28;;;8.62;69.75
64158;BME280;50449;51.528;5.076;2023-02-02T00:20:32;102093.38;;;8.62;69.55
64158;BME280;50449;51.528;5.076;2023-02-02T00:23:01;102091.50;;;8.62;69.69
64158;BME280;50449;51.528;5.076;2023-02-02T00:25:27;102094.19;;;8.62;69.89
64158;BME280;50449;51.528;5.076;2023-02-02T00:27:52;102098.75;;;8.62;69.86
64158;BME280;50449;51.528;5.076;2023-02-02T00:30:18;102094.19;;;8.62;69.71
64158;BME280;50449;51.528;5.076;2023-02-02T00:32:43;102096.91;;;8.62;69.83
64158;BME280;50449;51.528;5.076;2023-02-02T00:35:13;102094.00;;;8.64;69.79
64158;BME280;50449;51.528;5.076;2023-02-02T00:37:38;102093.16;;;8.63;69.77
64158;BME280;50449;51.528;5.076;2023-02-02T00:40:04;102106.63;;;8.63;69.97
64158;BME280;50449;51.528;5.076;2023-02-02T00:42:30;102106.63;;;8.63;69.75
64158;BME280;50449;51.528;5.076;2023-02-02T00:44:55;102105.63;;;8.64;69.62
64158;BME280;50449;51.528;5.076;2023-02-02T00:47:40;102111.19;;;8.63;69.48
64158;BME280;50449;51.528;5.076;2023-02-02T00:50:07;102126.31;;;8.64;69.80
64158;BME280;50449;51.528;5.076;2023-02-02T00:52:32;102117.41;;;8.63;69.61
64158;BME280;50449;51.528;5.076;2023-02-02T00:54:58;102117.41;;;8.63;69.62
64158;BME280;50449;51.528;5.076;2023-02-02T00:57:23;102119.09;;;8.64;70.03
64158;BME280;50449;51.528;5.076;2023-02-02T00:59:48;102131.69;;;8.64;69.59
64158;BME280;50449;51.528;5.076;2023-02-02T01:02:14;102118.22;;;8.64;69.85
64158;BME280;50449;51.528;5.076;2023-02-02T01:04:39;102121.78;;;8.64;69.82
64158;BME280;50449;51.528;5.076;2023-02-02T01:07:05;102119.09;;;8.64;69.69
64158;BME280;50449;51.528;5.076;2023-02-02T01:09:30;102135.84;;;8.66;69.51
64158;BME280;50449;51.528;5.076;2023-02-02T01:11:55;102125.31;;;8.65;69.83
64158;BME280;50449;51.528;5.076;2023-02-02T01:14:21;102125.31;;;8.65;69.43
64158;BME280;50449;51.528;5.076;2023-02-02T01:16:46;102123.44;;;8.65;69.64
64158;BME280;50449;51.528;5.076;2023-02-02T01:19:13;102129.66;;;8.66;69.76
64158;BME280;50449;51.528;5.076;2023-02-02T01:21:39;102112.66;;;8.65;69.54
64158;BME280;50449;51.528;5.076;2023-02-02T01:24:05;102122.41;;;8.66;69.39
64158;BME280;50449;51.528;5.076;2023-02-02T01:26:30;102128.63;;;8.67;69.67
64158;BME280;50449;51.528;5.076;2023-02-02T01:28:56;102116.81;;;8.68;69.69
64158;BME280;50449;51.528;5.076;2023-02-02T01:31:21;102126.78;;;8.68;69.69
64158;BME280;50449;51.528;5.076;2023-02-02T01:33:47;102122.41;;;8.66;69.58
64158;BME280;50449;51.528;5.076;2023-02-02T01:36:16;102114.31;;;8.66;69.92
64158;BME280;50449;51.528;5.076;2023-02-02T01:38:42;102121.38;;;8.68;69.64
64158;BME280;50449;51.528;5.076;2023-02-02T01:41:12;102118.69;;;8.68;69.73
64158;BME280;50449;51.528;5.076;2023-02-02T01:46:17;102120.34;;;8.69;69.63
64158;BME280;50449;51.528;5.076;2023-02-02T01:48:47;102118.69;;;8.68;69.65
64158;BME280;50449;51.528;5.076;2023-02-02T01:51:16;102121.38;;;8.68;69.72
64158;BME280;50449;51.528;5.076;2023-02-02T01:53:43;102122.22;;;8.68;69.79
64158;BME280;50449;51.528;5.076;2023-02-02T01:56:11;102117.66;;;8.69;69.86
64158;BME280;50449;51.528;5.076;2023-02-02T01:58:40;102121.16;;;8.69;69.92
64158;BME280;50449;51.528;5.076;2023-02-02T02:01:06;102105.22;;;8.68;69.62
64158;BME280;50449;51.528;5.076;2023-02-02T02:03:34;102108.75;;;8.68;69.43
64158;BME280;50449;51.528;5.076;2023-02-02T02:06:02;102113.09;;;8.69;69.45
64158;BME280;50449;51.528;5.076;2023-02-02T02:08:34;102105.00;;;8.69;69.48
64158;BME280;50449;51.528;5.076;2023-02-02T02:11:00;102118.47;;;8.69;69.34
64158;BME280;50449;51.528;5.076;2023-02-02T02:13:27;102111.25;;;8.70;69.80
64158;BME280;50449;51.528;5.076;2023-02-02T02:21:25;102113.72;;;8.71;69.69
64158;BME280;50449;51.528;5.076;2023-02-02T02:35:41;102115.78;;;8.69;69.71
64158;BME280;50449;51.528;5.076;2023-02-02T02:38:25;102118.28;;;8.71;69.78
64158;BME280;50449;51.528;5.076;2023-02-02T02:40:56;102120.16;;;8.70;69.80
64158;BME280;50449;51.528;5.076;2023-02-02T02:43:28;102128.25;;;8.70;70.04
64158;BME280;50449;51.528;5.076;2023-02-02T02:45:55;102135.28;;;8.71;69.86
64158;BME280;50449;51.528;5.076;2023-02-02T02:48:20;102135.28;;;8.71;69.93
64158;BME280;50449;51.528;5.076;2023-02-02T02:50:46;102138.78;;;8.72;69.74
64158;BME280;50449;51.528;5.076;2023-02-02T02:53:17;102132.59;;;8.71;70.03
64158;BME280;50449;51.528;5.076;2023-02-02T03:01:25;102121.63;;;8.73;69.75
64158;BME280;50449;51.528;5.076;2023-02-02T03:04:05;102128.03;;;8.72;69.73
64158;BME280;50449;51.528;5.076;2023-02-02T03:06:41;102119.94;;;8.72;69.82
64158;BME280;50449;51.528;5.076;2023-02-02T03:09:12;102127.00;;;8.73;69.57
64158;BME280;50449;51.528;5.076;2023-02-02T03:11:39;102126.19;;;8.72;69.67
64158;BME280;50449;51.528;5.076;2023-02-02T03:14:05;102127.00;;;8.73;69.65
64158;BME280;50449;51.528;5.076;2023-02-02T03:16:37;102124.31;;;8.73;69.81
64158;BME280;50449;51.528;5.076;2023-02-02T03:19:03;102119.75;;;8.73;69.64
64158;BME280;50449;51.528;5.076;2023-02-02T03:21:30;102134.88;;;8.74;69.80
64158;BME280;50449;51.528;5.076;2023-02-02T03:23:55;102122.28;;;8.75;69.75
64158;BME280;50449;51.528;5.076;2023-02-02T03:26:21;102129.50;;;8.74;69.58
64158;BME280;50449;51.528;5.076;2023-02-02T03:28:48;102132.19;;;8.74;69.51
64158;BME280;50449;51.528;5.076;2023-02-02T03:31:14;102120.41;;;8.75;69.61
64158;BME280;50449;51.528;5.076;2023-02-02T03:33:40;102128.47;;;8.75;69.71
64158;BME280;50449;51.528;5.076;2023-02-02T03:36:05;102119.56;;;8.75;69.70
64158;BME280;50449;51.528;5.076;2023-02-02T03:38:31;102106.94;;;8.75;69.83
64158;BME280;50449;51.528;5.076;2023-02-02T03:40:56;102108.59;;;8.76;69.61
64158;BME280;50449;51.528;5.076;2023-02-02T03:43:22;102108.59;;;8.76;69.54
64158;BME280;50449;51.528;5.076;2023-02-02T03:45:58;102116.66;;;8.76;69.70
64158;BME280;50449;51.528;5.076;2023-02-02T03:48:24;102133.66;;;8.77;69.55
64158;BME280;50449;51.528;5.076;2023-02-02T03:50:50;102139.25;;;8.75;69.78
64158;BME280;50449;51.528;5.076;2023-02-02T03:53:15;102135.53;;;8.76;69.91
64158;BME280;50449;51.528;5.076;2023-02-02T03:55:41;102140.91;;;8.76;69.71
64158;BME280;50449;51.528;5.076;2023-02-02T03:58:06;102145.47;;;8.76;69.86
64158;BME280;50449;51.528;5.076;2023-02-02T04:00:32;102155.19;;;8.77;69.84
64158;BME280;50449;51.528;5.076;2023-02-02T04:02:58;102155.19;;;8.77;69.84
64158;BME280;50449;51.528;5.076;2023-02-02T04:05:23;102146.28;;;8.76;69.63
64158;BME280;50449;51.528;5.076;2023-02-02T04:07:48;102140.91;;;8.76;69.85
64158;BME280;50449;51.528;5.076;2023-02-02T04:10:14;102144.44;;;8.77;69.73
64158;BME280;50449;51.528;5.076;2023-02-02T04:12:39;102147.97;;;8.77;69.64
64158;BME280;50449;51.528;5.076;2023-02-02T04:15:05;102149.81;;;8.77;69.76
64158;BME280;50449;51.528;5.076;2023-02-02T04:17:31;102154.38;;;8.76;69.61
64158;BME280;50449;51.528;5.076;2023-02-02T04:19:56;102146.28;;;8.76;69.68
64158;BME280;50449;51.528;5.076;2023-02-02T04:22:23;102154.38;;;8.76;69.63
64158;BME280;50449;51.528;5.076;2023-02-02T04:24:49;102147.97;;;8.77;69.67
64158;BME280;50449;51.528;5.076;2023-02-02T04:27:14;102154.38;;;8.76;69.86
64158;BME280;50449;51.528;5.076;2023-02-02T04:29:39;102158.75;;;8.77;69.62
64158;BME280;50449;51.528;5.076;2023-02-02T04:32:05;102160.59;;;8.77;69.85
64158;BME280;50449;51.528;5.076;2023-02-02T04:34:30;102163.28;;;8.77;70.01
64158;BME280;50449;51.528;5.076;2023-02-02T04:36:56;102165.38;;;8.75;69.95
64158;BME280;50449;51.528;5.076;2023-02-02T04:39:22;102156.25;;;8.76;69.77
64158;BME280;50449;51.528;5.076;2023-02-02T04:41:48;102156.25;;;8.76;69.80
64158;BME280;50449;51.528;5.076;2023-02-02T04:44:14;102160.81;;;8.75;69.86
64158;BME280;50449;51.528;5.076;2023-02-02T04:46:41;102156.25;;;8.76;69.82
64158;BME280;50449;51.528;5.076;2023-02-02T04:49:08;102156.25;;;8.76;69.70
64158;BME280;50449;51.528;5.076;2023-02-02T04:51:34;102145.47;;;8.76;69.81
64158;BME280;50449;51.528;5.076;2023-02-02T04:53:59;102145.47;;;8.76;69.80
64158;BME280;50449;51.528;5.076;2023-02-02T04:56:25;102136.34;;;8.77;69.56
64158;BME280;50449;51.528;5.076;2023-02-02T04:58:55;102137.19;;;8.77;69.70
64158;BME280;50449;51.528;5.076;2023-02-02T05:01:23;102134.69;;;8.76;69.69
64158;BME280;50449;51.528;5.076;2023-02-02T05:04:00;102138.44;;;8.75;69.62
64158;BME280;50449;51.528;5.076;2023-02-02T05:06:31;102153.56;;;8.76;69.62
64158;BME280;50449;51.528;5.076;2023-02-02T05:08:59;102156.25;;;8.76;69.65
64158;BME280;50449;51.528;5.076;2023-02-02T05:11:39;102159.97;;;8.75;69.82
64158;BME280;50449;51.528;5.076;2023-02-02T05:14:17;102165.38;;;8.75;70.06
64158;BME280;50449;51.528;5.076;2023-02-02T05:16:50;102164.31;;;8.76;69.71
64158;BME280;50449;51.528;5.076;2023-02-02T05:19:17;102162.69;;;8.75;69.69
64158;BME280;50449;51.528;5.076;2023-02-02T05:21:53;102164.31;;;8.76;70.00
64158;BME280;50449;51.528;5.076;2023-02-02T05:24:21;102169.53;;;8.77;69.71
64158;BME280;50449;51.528;5.076;2023-02-02T05:27:08;102175.75;;;8.78;69.91
64158;BME280;50449;51.528;5.076;2023-02-02T05:29:39;102165.97;;;8.77;69.72
64158;BME280;50449;51.528;5.076;2023-02-02T05:32:07;102162.69;;;8.75;70.02
64158;BME280;50449;51.528;5.076;2023-02-02T05:34:43;102161.63;;;8.76;69.72
64158;BME280;50449;51.528;5.076;2023-02-02T05:37:13;102167.03;;;8.76;69.45
64158;BME280;50449;51.528;5.076;2023-02-02T05:39:49;102167.84;;;8.76;69.85
64158;BME280;50449;51.528;5.076;2023-02-02T05:42:19;102168.69;;;8.77;69.89
64158;BME280;50449;51.528;5.076;2023-02-02T05:44:54;102173.25;;;8.76;69.98
64158;BME280;50449;51.528;5.076;2023-02-02T05:47:24;102176.75;;;8.77;69.95
64158;BME280;50449;51.528;5.076;2023-02-02T05:49:52;102168.69;;;8.77;69.62
64158;BME280;50449;51.528;5.076;2023-02-02T05:52:32;102174.06;;;8.77;69.77
64158;BME280;50449;51.528;5.076;2023-02-02T05:55:01;102175.75;;;8.78;69.56
64158;BME280;50449;51.528;5.076;2023-02-02T05:57:35;102174.91;;;8.77;69.54
64158;BME280;50449;51.528;5.076;2023-02-02T06:00:30;102172.22;;;8.77;69.55
64158;BME280;50449;51.528;5.076;2023-02-02T06:03:06;102166.84;;;8.77;69.93
64158;BME280;50449;51.528;5.076;2023-02-02T06:05:38;102174.91;;;8.77;69.64
64158;BME280;50449;51.528;5.076;2023-02-02T06:08:06;102172.22;;;8.77;69.78
64158;BME280;50449;51.528;5.076;2023-02-02T06:10:31;102170.38;;;8.78;69.66
64158;BME280;50449;51.528;5.076;2023-02-02T06:12:57;102172.00;;;8.79;69.82
64158;BME280;50449;51.528;5.076;2023-02-02T06:15:25;102175.53;;;8.79;69.68
64158;BME280;50449;51.528;5.076;2023-02-02T06:17:53;102180.09;;;8.79;69.96
64158;BME280;50449;51.528;5.076;2023-02-02T06:20:22;102178.22;;;8.79;69.85
64158;BME280;50449;51.528;5.076;2023-02-02T06:23:05;102177.41;;;8.79;69.77
64158;BME280;50449;51.528;5.076;2023-02-02T06:25:38;102176.41;;;8.80;69.64
64158;BME280;50449;51.528;5.076;2023-02-02T06:28:04;102182.78;;;8.79;69.68
64158;BME280;50449;51.528;5.076;2023-02-02T06:30:35;102173.06;;;8.78;69.88
64158;BME280;50449;51.528;5.076;2023-02-02T06:33:03;102176.56;;;8.78;69.76
64158;BME280;50449;51.528;5.076;2023-02-02T06:35:34;102171.19;;;8.78;69.60
64158;BME280;50449;51.528;5.076;2023-02-02T06:38:07;102178.44;;;8.78;69.70
64158;BME280;50449;51.528;5.076;2023-02-02T06:40:40;102181.97;;;8.78;69.67
64158;BME280;50449;51.528;5.076;2023-02-02T06:43:14;102197.94;;;8.80;69.58
64158;BME280;50449;51.528;5.076;2023-02-02T06:45:47;102209.72;;;8.79;69.82
64158;BME280;50449;51.528;5.076;2023-02-02T06:48:15;102210.56;;;8.79;69.70
64158;BME280;50449;51.528;5.076;2023-02-02T06:53:30;102213.25;;;8.79;69.78
64158;BME280;50449;51.528;5.076;2023-02-02T06:55:58;102216.81;;;8.80;69.54
64158;BME280;50449;51.528;5.076;2023-02-02T07:08:41;102229.63;;;8.78;69.77
64158;BME280;50449;51.528;5.076;2023-02-02T07:11:07;102228.59;;;8.79;69.62
64158;BME280;50449;51.528;5.076;2023-02-02T07:13:32;102234.81;;;8.79;69.76
64158;BME280;50449;51.528;5.076;2023-02-02T07:15:57;102227.59;;;8.80;69.84
64158;BME280;50449;51.528;5.076;2023-02-02T07:18:23;102230.28;;;8.80;69.97
64158;BME280;50449;51.528;5.076;2023-02-02T07:20:48;102233.81;;;8.80;69.91
64158;BME280;50449;51.528;5.076;2023-02-02T07:23:14;102222.19;;;8.80;69.88
64158;BME280;50449;51.528;5.076;2023-02-02T07:25:39;102223.03;;;8.80;69.85
64158;BME280;50449;51.528;5.076;2023-02-02T07:28:05;102220.31;;;8.80;69.93
64158;BME280;50449;51.528;5.076;2023-02-02T07:30:30;102211.22;;;8.81;69.95
64158;BME280;50449;51.528;5.076;2023-02-02T07:32:55;102220.13;;;8.82;69.97
64158;BME280;50449;51.528;5.076;2023-02-02T07:35:22;102225.50;;;8.82;70.13
64158;BME280;50449;51.528;5.076;2023-02-02T07:37:52;102235.47;;;8.81;69.83
64158;BME280;50449;51.528;5.076;2023-02-02T07:40:18;102236.28;;;8.82;69.89
64158;BME280;50449;51.528;5.076;2023-02-02T07:42:45;102235.47;;;8.81;69.90
64158;BME280;50449;51.528;5.076;2023-02-02T07:45:12;102238.38;;;8.80;70.03
64158;BME280;50449;51.528;5.076;2023-02-02T07:47:37;102238.16;;;8.81;69.88
64158;BME280;50449;51.528;5.076;2023-02-02T07:50:02;102240.66;;;8.83;69.98
64158;BME280;50449;51.528;5.076;2023-02-02T07:52:28;102234.63;;;8.81;69.84
64158;BME280;50449;51.528;5.076;2023-02-02T07:54:54;102237.13;;;8.82;69.87
64158;BME280;50449;51.528;5.076;2023-02-02T07:57:19;102238.97;;;8.82;70.24
64158;BME280;50449;51.528;5.076;2023-02-02T07:59:45;102238.78;;;8.83;70.25
64158;BME280;50449;51.528;5.076;2023-02-02T08:02:11;102241.50;;;8.83;70.10
64158;BME280;50449;51.528;5.076;2023-02-02T08:04:36;102236.94;;;8.84;70.08
64158;BME280;50449;51.528;5.076;2023-02-02T08:07:01;102251.25;;;8.84;70.25
64158;BME280;50449;51.528;5.076;2023-02-02T08:09:27;102250.22;;;8.85;69.77
64158;BME280;50449;51.528;5.076;2023-02-02T08:11:52;102266.56;;;8.84;69.65
64158;BME280;50449;51.528;5.076;2023-02-02T08:14:18;102271.97;;;8.84;70.01
64158;BME280;50449;51.528;5.076;2023-02-02T08:16:43;102265.75;;;8.83;70.03
64158;BME280;50449;51.528;5.076;2023-02-02T08:19:09;102263.03;;;8.83;69.85
64158;BME280;50449;51.528;5.076;2023-02-02T08:21:35;102256.84;;;8.83;70.03
64158;BME280;50449;51.528;5.076;2023-02-02T08:24:01;102262.88;;;8.85;69.95
64158;BME280;50449;51.528;5.076;2023-02-02T08:26:29;102265.56;;;8.85;70.07
64158;BME280;50449;51.528;5.076;2023-02-02T08:29:00;102260.81;;;8.87;69.94
64158;BME280;50449;51.528;5.076;2023-02-02T08:31:31;102265.34;;;8.86;69.94
64158;BME280;50449;51.528;5.076;2023-02-02T08:33:57;102266.19;;;8.87;70.10
64158;BME280;50449;51.528;5.076;2023-02-02T08:36:24;102266.19;;;8.87;70.04
64158;BME280;50449;51.528;5.076;2023-02-02T08:38:50;102269.72;;;8.87;69.90
64158;BME280;50449;51.528;5.076;2023-02-02T08:41:18;102268.91;;;8.87;70.24
64158;BME280;50449;51.528;5.076;2023-02-02T08:43:44;102284.03;;;8.88;70.07
64158;BME280;50449;51.528;5.076;2023-02-02T08:46:12;102283.00;;;8.89;69.77
64158;BME280;50449;51.528;5.076;2023-02-02T08:48:38;102291.94;;;8.90;69.87
64158;BME280;50449;51.528;5.076;2023-02-02T08:51:04;102292.94;;;8.88;69.87
64158;BME280;50449;51.528;5.076;2023-02-02T08:53:31;102298.16;;;8.90;70.00
64158;BME280;50449;51.528;5.076;2023-02-02T08:56:09;102313.28;;;8.91;70.00
64158;BME280;50449;51.528;5.076;2023-02-02T08:58:35;102320.53;;;8.91;69.92
64158;BME280;50449;51.528;5.076;2023-02-02T09:03:36;102323.03;;;8.92;69.96
64158;BME280;50449;51.528;5.076;2023-02-02T09:06:15;102323.03;;;8.92;69.96
64158;BME280;50449;51.528;5.076;2023-02-02T09:08:41;102329.25;;;8.93;69.86
64158;BME280;50449;51.528;5.076;2023-02-02T09:11:09;102332.78;;;8.93;69.94
64158;BME280;50449;51.528;5.076;2023-02-02T09:13:36;102329.25;;;8.93;70.24
64158;BME280;50449;51.528;5.076;2023-02-02T09:16:05;102340.69;;;8.95;70.01
64158;BME280;50449;51.528;5.076;2023-02-02T09:18:31;102346.09;;;8.95;70.01
64158;BME280;50449;51.528;5.076;2023-02-02T09:21:01;102354.16;;;8.95;70.08
64158;BME280;50449;51.528;5.076;2023-02-02T09:23:31;102346.09;;;8.95;70.00
64158;BME280;50449;51.528;5.076;2023-02-02T09:25:57;102351.47;;;8.95;70.01
64158;BME280;50449;51.528;5.076;2023-02-02T09:28:32;102360.16;;;8.97;69.90
64158;BME280;50449;51.528;5.076;2023-02-02T09:31:00;102357.47;;;8.97;70.06
64158;BME280;50449;51.528;5.076;2023-02-02T09:33:25;102360.16;;;8.97;70.02
64158;BME280;50449;51.528;5.076;2023-02-02T09:35:51;102362.69;;;8.98;69.98
64158;BME280;50449;51.528;5.076;2023-02-02T09:38:16;102362.50;;;9.00;70.02
64158;BME280;50449;51.528;5.076;2023-02-02T09:40:42;102370.78;;;8.98;70.11
64158;BME280;50449;51.528;5.076;2023-02-02T09:48:41;102378.47;;;9.01;69.97
64158;BME280;50449;51.528;5.076;2023-02-02T09:51:12;102387.38;;;9.02;70.05
64158;BME280;50449;51.528;5.076;2023-02-02T09:53:46;102392.59;;;9.03;70.05
64158;BME280;50449;51.528;5.076;2023-02-02T09:56:26;102392.41;;;9.05;70.14
64158;BME280;50449;51.528;5.076;2023-02-02T09:58:54;102394.25;;;9.04;69.75
64158;BME280;50449;51.528;5.076;2023-02-02T10:01:24;102403.19;;;9.05;69.89
64158;BME280;50449;51.528;5.076;2023-02-02T10:06:55;102401.97;;;9.07;69.77
64158;BME280;50449;51.528;5.076;2023-02-02T10:09:42;102390.16;;;9.08;70.12
64158;BME280;50449;51.528;5.076;2023-02-02T10:17:55;102389.13;;;9.09;69.89
64158;BME280;50449;51.528;5.076;2023-02-02T10:20:46;102390.97;;;9.09;69.91
64158;BME280;50449;51.528;5.076;2023-02-02T10:23:34;102382.72;;;9.10;69.90
64158;BME280;50449;51.528;5.076;2023-02-02T10:26:11;102380.03;;;9.10;69.72
64158;BME280;50449;51.528;5.076;2023-02-02T10:29:01;102386.06;;;9.13;69.97
64158;BME280;50449;51.528;5.076;2023-02-02T10:34:06;102383.16;;;9.14;69.81
64158;BME280;50449;51.528;5.076;2023-02-02T10:39:27;102402.66;;;9.16;70.04
64158;BME280;50449;51.528;5.076;2023-02-02T10:44:57;102400.63;;;9.18;69.85
64158;BME280;50449;51.528;5.076;2023-02-02T10:47:28;102406.03;;;9.18;69.63
64158;BME280;50449;51.528;5.076;2023-02-02T10:50:06;102412.06;;;9.20;69.81
64158;BME280;50449;51.528;5.076;2023-02-02T10:52:42;102413.72;;;9.21;69.67
64158;BME280;50449;51.528;5.076;2023-02-02T11:00:52;102413.31;;;9.24;69.67
64158;BME280;50449;51.528;5.076;2023-02-02T11:03:30;102423.09;;;9.25;69.97
64158;BME280;50449;51.528;5.076;2023-02-02T11:06:01;102423.94;;;9.26;69.90
64158;BME280;50449;51.528;5.076;2023-02-02T11:08:52;102419.38;;;9.26;69.85
64158;BME280;50449;51.528;5.076;2023-02-02T11:13:59;102420.84;;;9.29;69.73
64158;BME280;50449;51.528;5.076;2023-02-02T11:16:31;102425.22;;;9.30;69.84
64158;BME280;50449;51.528;5.076;2023-02-02T11:18:57;102427.91;;;9.30;69.58
64158;BME280;50449;51.528;5.076;2023-02-02T11:21:31;102418.78;;;9.31;69.67
64158;BME280;50449;51.528;5.076;2023-02-02T11:29:14;102406.78;;;9.34;69.85
64158;BME280;50449;51.528;5.076;2023-02-02T11:31:43;102403.03;;;9.35;70.18
64158;BME280;50449;51.528;5.076;2023-02-02T11:34:15;102399.34;;;9.36;69.81
64158;BME280;50449;51.528;5.076;2023-02-02T11:36:57;102398.28;;;9.37;69.90
64158;BME280;50449;51.528;5.076;2023-02-02T11:39:23;102407.22;;;9.37;69.68
64158;BME280;50449;51.528;5.076;2023-02-02T11:41:48;102410.56;;;9.39;70.02
64158;BME280;50449;51.528;5.076;2023-02-02T11:44:42;102412.25;;;9.40;70.04
64158;BME280;50449;51.528;5.076;2023-02-02T11:47:18;102401.47;;;9.40;69.79
64158;BME280;50449;51.528;5.076;2023-02-02T11:49:44;102400.41;;;9.41;69.88
64158;BME280;50449;51.528;5.076;2023-02-02T11:52:18;102395.66;;;9.43;70.09
64158;BME280;50449;51.528;5.076;2023-02-02T11:54:48;102407.28;;;9.44;69.82
64158;BME280;50449;51.528;5.076;2023-02-02T11:57:17;102403.53;;;9.45;69.82
64158;BME280;50449;51.528;5.076;2023-02-02T11:59:43;102408.94;;;9.45;69.95
64158;BME280;50449;51.528;5.076;2023-02-02T12:04:47;102405.41;;;9.44;69.83
64158;BME280;50449;51.528;5.076;2023-02-02T12:07:31;102414.16;;;9.46;69.95
64158;BME280;50449;51.528;5.076;2023-02-02T12:10:10;102406.88;;;9.47;69.69
64158;BME280;50449;51.528;5.076;2023-02-02T12:12:55;102400.66;;;9.46;69.78
64158;BME280;50449;51.528;5.076;2023-02-02T12:15:55;102411.28;;;9.48;69.92
64158;BME280;50449;51.528;5.076;2023-02-02T12:21:34;102397.78;;;9.48;70.02
64158;BME280;50449;51.528;5.076;2023-02-02T12:26:38;102394.06;;;9.49;70.02
64158;BME280;50449;51.528;5.076;2023-02-02T12:29:34;102386.78;;;9.49;70.08
64158;BME280;50449;51.528;5.076;2023-02-02T12:32:26;102384.72;;;9.51;69.92
64158;BME280;50449;51.528;5.076;2023-02-02T12:35:28;102393.66;;;9.52;69.91
64158;BME280;50449;51.528;5.076;2023-02-02T12:38:23;102387.25;;;9.53;70.28
64158;BME280;50449;51.528;5.076;2023-02-02T12:41:07;102382.69;;;9.53;70.26
64158;BME280;50449;51.528;5.076;2023-02-02T12:43:39;102392.44;;;9.54;70.10
64158;BME280;50449;51.528;5.076;2023-02-02T13:01:56;102377.97;;;9.62;70.23
64158;BME280;50449;51.528;5.076;2023-02-02T13:07:07;102382.13;;;9.65;70.33
64158;BME280;50449;51.528;5.076;2023-02-02T13:12:10;102372.81;;;9.67;70.33
64158;BME280;50449;51.528;5.076;2023-02-02T13:14:47;102371.78;;;9.68;70.14
64158;BME280;50449;51.528;5.076;2023-02-02T13:17:37;102372.63;;;9.69;70.33
64158;BME280;50449;51.528;5.076;2023-02-02T13:20:20;102375.97;;;9.71;70.41
64158;BME280;50449;51.528;5.076;2023-02-02T13:22:49;102379.31;;;9.73;70.40
64158;BME280;50449;51.528;5.076;2023-02-02T13:25:24;102377.44;;;9.73;70.21
64158;BME280;50449;51.528;5.076;2023-02-02T13:27:52;102372.88;;;9.74;70.12
64158;BME280;50449;51.528;5.076;2023-02-02T13:32:48;102377.03;;;9.77;70.27
64158;BME280;50449;51.528;5.076;2023-02-02T13:35:21;102364.38;;;9.77;70.04
64158;BME280;50449;51.528;5.076;2023-02-02T13:38:18;102369.56;;;9.79;70.33
64158;BME280;50449;51.528;5.076;2023-02-02T13:40:46;102369.75;;;9.77;70.41
64158;BME280;50449;51.528;5.076;2023-02-02T13:51:29;102368.34;;;9.81;70.25
64158;BME280;50449;51.528;5.076;2023-02-02T13:57:44;102366.28;;;9.83;70.09
64158;BME280;50449;51.528;5.076;2023-02-02T14:00:25;102374.38;;;9.83;70.18
64158;BME280;50449;51.528;5.076;2023-02-02T14:03:00;102379.78;;;9.83;69.96
64158;BME280;50449;51.528;5.076;2023-02-02T14:05:36;102388.72;;;9.84;70.27
64158;BME280;50449;51.528;5.076;2023-02-02T14:08:14;102374.16;;;9.85;70.18
64158;BME280;50449;51.528;5.076;2023-02-02T14:13:21;102384.78;;;9.86;70.22
64158;BME280;50449;51.528;5.076;2023-02-02T14:16:10;102385.59;;;9.87;70.53
64158;BME280;50449;51.528;5.076;2023-02-02T14:18:50;102390.19;;;9.86;70.15
64158;BME280;50449;51.528;5.076;2023-02-02T14:26:40;102396.22;;;9.88;70.50
64158;BME280;50449;51.528;5.076;2023-02-02T14:31:57;102405.97;;;9.89;70.29
64158;BME280;50449;51.528;5.076;2023-02-02T14:34:38;102397.69;;;9.91;70.18
64158;BME280;50449;51.528;5.076;2023-02-02T14:45:39;102402.69;;;9.94;70.41
64158;BME280;50449;51.528;5.076;2023-02-02T14:58:28;102421.41;;;9.95;70.04
64158;BME280;50449;51.528;5.076;2023-02-02T15:01:00;102420.34;;;9.96;70.17
64158;BME280;50449;51.528;5.076;2023-02-02T15:03:47;102424.72;;;9.97;70.14
64158;BME280;50449;51.528;5.076;2023-02-02T15:06:34;102423.88;;;9.97;70.27
64158;BME280;50449;51.528;5.076;2023-02-02T15:14:35;102412.06;;;9.98;70.29
64158;BME280;50449;51.528;5.076;2023-02-02T15:19:39;102421.00;;;9.99;70.27
64158;BME280;50449;51.528;5.076;2023-02-02T15:22:35;102425.34;;;10.00;70.48
64158;BME280;50449;51.528;5.076;2023-02-02T15:25:12;102422.66;;;10.00;70.50
64158;BME280;50449;51.528;5.076;2023-02-02T15:27:45;102417.25;;;10.00;70.61
64158;BME280;50449;51.528;5.076;2023-02-02T15:30:15;102421.63;;;10.01;70.58
64158;BME280;50449;51.528;5.076;2023-02-02T15:32:42;102418.94;;;10.01;70.55
64158;BME280;50449;51.528;5.076;2023-02-02T15:35:16;102418.94;;;10.01;70.40
64158;BME280;50449;51.528;5.076;2023-02-02T15:37:47;102423.28;;;10.02;70.27
64158;BME280;50449;51.528;5.076;2023-02-02T15:40:19;102416.03;;;10.02;70.54
64158;BME280;50449;51.528;5.076;2023-02-02T15:42:49;102426.00;;;10.02;70.72
64158;BME280;50449;51.528;5.076;2023-02-02T15:48:18;102429.75;;;10.01;70.48
64158;BME280;50449;51.528;5.076;2023-02-02T15:50:45;102432.44;;;10.01;70.46
64158;BME280;50449;51.528;5.076;2023-02-02T15:53:23;102428.69;;;10.02;70.31
64158;BME280;50449;51.528;5.076;2023-02-02T15:55:49;102444.25;;;10.00;70.65
64158;BME280;50449;51.528;5.076;2023-02-02T15:58:27;102438.66;;;10.01;70.52